sensor_id;sensor_type;location;lat;lon;timestamp;pressure;altitude;pressure_sealevel;temperature;humidity
62508;BME280;48556;51.972;4.624;2023-04-28T00:01:43;76657.50;;;-146.23;40.00
62508;BME280;48556;51.972;4.624;2023-04-28T00:04:09;76613.31;;;-146.23;39.60
62508;BME280;48556;51.972;4.624;2023-04-28T00:06:47;76599.25;;;-146.23;39.40
62508;BME280;48556;51.972;4.624;2023-04-28T00:09:12;76625.34;;;-146.23;39.76
62508;BME280;48556;51.972;4.624;2023-04-28T00:11:38;76617.31;;;-146.23;39.97
62508;BME280;48556;51.972;4.624;2023-04-28T00:14:04;76619.31;;;-146.23;40.05
62508;BME280;48556;51.972;4.624;2023-04-28T00:16:30;76643.44;;;-146.23;40.59
62508;BME280;48556;51.972;4.624;2023-04-28T00:18:56;76649.44;;;-146.23;40.33
62508;BME280;48556;51.972;4.624;2023-04-28T00:21:27;76621.34;;;-146.23;39.86
62508;BME280;48556;51.972;4.624;2023-04-28T00:24:02;76633.38;;;-146.23;40.02
62508;BME280;48556;51.972;4.624;2023-04-28T00:26:27;76595.22;;;-146.23;39.65
62508;BME280;48556;51.972;4.624;2023-04-28T00:28:58;76587.19;;;-146.23;39.47
62508;BME280;48556;51.972;4.624;2023-04-28T00:31:25;76615.31;;;-146.23;39.79
62508;BME280;48556;51.972;4.624;2023-04-28T00:33:55;76609.28;;;-146.23;39.88
62508;BME280;48556;51.972;4.624;2023-04-28T00:36:24;76563.09;;;-146.23;39.56
62508;BME280;48556;51.972;4.624;2023-04-28T00:38:51;76575.16;;;-146.23;39.53
62508;BME280;48556;51.972;4.624;2023-04-28T00:41:16;76577.16;;;-146.23;39.48
62508;BME280;48556;51.972;4.624;2023-04-28T00:43:47;76553.06;;;-146.23;39.32
62508;BME280;48556;51.972;4.624;2023-04-28T00:46:39;76571.13;;;-146.23;39.48
62508;BME280;48556;51.972;4.624;2023-04-28T00:49:14;76577.16;;;-146.23;39.54
62508;BME280;48556;51.972;4.624;2023-04-28T00:51:48;76601.25;;;-146.23;39.52
62508;BME280;48556;51.972;4.624;2023-04-28T00:54:14;76553.06;;;-146.23;39.12
62508;BME280;48556;51.972;4.624;2023-04-28T00:56:40;76577.16;;;-146.23;39.29
62508;BME280;48556;51.972;4.624;2023-04-28T00:59:08;76611.28;;;-146.23;39.53
62508;BME280;48556;51.972;4.624;2023-04-28T01:01:34;76635.41;;;-146.23;40.00
62508;BME280;48556;51.972;4.624;2023-04-28T01:04:01;76633.38;;;-146.23;40.10
62508;BME280;48556;51.972;4.624;2023-04-28T01:06:28;76633.38;;;-146.23;40.07
62508;BME280;48556;51.972;4.624;2023-04-28T01:08:54;76637.41;;;-146.23;40.08
62508;BME280;48556;51.972;4.624;2023-04-28T01:11:22;76645.44;;;-146.23;39.98
62508;BME280;48556;51.972;4.624;2023-04-28T01:13:48;76641.41;;;-146.23;40.09
62508;BME280;48556;51.972;4.624;2023-04-28T01:16:14;76649.44;;;-146.23;40.31
62508;BME280;48556;51.972;4.624;2023-04-28T01:18:50;76653.47;;;-146.23;40.17
62508;BME280;48556;51.972;4.624;2023-04-28T01:21:26;76661.50;;;-146.23;40.36
62508;BME280;48556;51.972;4.624;2023-04-28T01:23:56;76655.47;;;-146.23;40.50
62508;BME280;48556;51.972;4.624;2023-04-28T01:26:35;76667.53;;;-146.23;40.52
62508;BME280;48556;51.972;4.624;2023-04-28T01:29:08;76641.41;;;-146.23;40.23
62508;BME280;48556;51.972;4.624;2023-04-28T01:31:34;76653.47;;;-146.23;40.23
62508;BME280;48556;51.972;4.624;2023-04-28T01:34:04;76621.34;;;-146.23;39.89
62508;BME280;48556;51.972;4.624;2023-04-28T01:36:30;76651.47;;;-146.23;40.22
62508;BME280;48556;51.972;4.624;2023-04-28T01:38:57;76665.53;;;-146.23;40.51
62508;BME280;48556;51.972;4.624;2023-04-28T01:41:23;76649.44;;;-146.23;40.12
62508;BME280;48556;51.972;4.624;2023-04-28T01:43:48;76675.56;;;-146.23;40.43
62508;BME280;48556;51.972;4.624;2023-04-28T01:46:14;76599.25;;;-146.23;39.48
62508;BME280;48556;51.972;4.624;2023-04-28T01:48:40;76623.34;;;-146.23;39.97
62508;BME280;48556;51.972;4.624;2023-04-28T01:51:05;76621.34;;;-146.23;40.09
62508;BME280;48556;51.972;4.624;2023-04-28T01:53:31;76665.53;;;-146.23;40.44
62508;BME280;48556;51.972;4.624;2023-04-28T01:55:56;76655.47;;;-146.23;40.10
62508;BME280;48556;51.972;4.624;2023-04-28T01:58:23;76665.53;;;-146.23;40.25
62508;BME280;48556;51.972;4.624;2023-04-28T02:00:48;76653.47;;;-146.23;39.96
62508;BME280;48556;51.972;4.624;2023-04-28T02:03:14;76685.59;;;-146.23;40.36
62508;BME280;48556;51.972;4.624;2023-04-28T02:05:40;76645.44;;;-146.23;40.11
62508;BME280;48556;51.972;4.624;2023-04-28T02:08:06;76661.50;;;-146.23;40.39
62508;BME280;48556;51.972;4.624;2023-04-28T02:10:31;76633.38;;;-146.23;40.08
62508;BME280;48556;51.972;4.624;2023-04-28T02:12:57;76649.44;;;-146.23;40.21
62508;BME280;48556;51.972;4.624;2023-04-28T02:15:23;76657.50;;;-146.23;40.40
62508;BME280;48556;51.972;4.624;2023-04-28T02:17:48;76683.59;;;-146.23;40.68
62508;BME280;48556;51.972;4.624;2023-04-28T02:20:21;76669.53;;;-146.23;40.68
62508;BME280;48556;51.972;4.624;2023-04-28T02:22:47;76677.56;;;-146.23;40.83
62508;BME280;48556;51.972;4.624;2023-04-28T02:25:17;76673.56;;;-146.23;40.91
62508;BME280;48556;51.972;4.624;2023-04-28T02:27:43;76675.56;;;-146.23;41.10
62508;BME280;48556;51.972;4.624;2023-04-28T02:30:09;76661.50;;;-146.23;40.82
62508;BME280;48556;51.972;4.624;2023-04-28T02:32:39;76657.50;;;-146.23;41.00
62508;BME280;48556;51.972;4.624;2023-04-28T02:35:05;76643.44;;;-146.23;40.79
62508;BME280;48556;51.972;4.624;2023-04-28T02:37:31;76641.41;;;-146.23;40.80
62508;BME280;48556;51.972;4.624;2023-04-28T02:39:57;76669.53;;;-146.23;41.12
62508;BME280;48556;51.972;4.624;2023-04-28T02:42:22;76657.50;;;-146.23;41.11
62508;BME280;48556;51.972;4.624;2023-04-28T02:44:48;76639.41;;;-146.23;40.90
62508;BME280;48556;51.972;4.624;2023-04-28T02:47:13;76667.53;;;-146.23;41.31
62508;BME280;48556;51.972;4.624;2023-04-28T02:49:45;76629.38;;;-146.23;40.95
62508;BME280;48556;51.972;4.624;2023-04-28T02:52:10;76647.44;;;-146.23;41.08
62508;BME280;48556;51.972;4.624;2023-04-28T02:54:42;76661.50;;;-146.23;41.26
62508;BME280;48556;51.972;4.624;2023-04-28T02:57:08;76637.41;;;-146.23;40.99
62508;BME280;48556;51.972;4.624;2023-04-28T02:59:53;76605.28;;;-146.23;40.75
62508;BME280;48556;51.972;4.624;2023-04-28T03:02:22;76589.19;;;-146.23;40.54
62508;BME280;48556;51.972;4.624;2023-04-28T03:04:49;76629.38;;;-146.23;40.87
62508;BME280;48556;51.972;4.624;2023-04-28T03:07:34;76589.19;;;-146.23;40.37
62508;BME280;48556;51.972;4.624;2023-04-28T03:10:07;76639.41;;;-146.23;40.96
62508;BME280;48556;51.972;4.624;2023-04-28T03:12:52;76601.25;;;-146.23;40.57
62508;BME280;48556;51.972;4.624;2023-04-28T03:15:31;76545.03;;;-146.23;40.23
62508;BME280;48556;51.972;4.624;2023-04-28T03:17:57;76547.03;;;-146.23;40.10
62508;BME280;48556;51.972;4.624;2023-04-28T03:20:39;76565.09;;;-146.23;40.36
62508;BME280;48556;51.972;4.624;2023-04-28T03:23:05;76559.06;;;-146.23;40.36
62508;BME280;48556;51.972;4.624;2023-04-28T03:25:33;76559.06;;;-146.23;40.54
62508;BME280;48556;51.972;4.624;2023-04-28T03:27:58;76557.06;;;-146.23;40.54
62508;BME280;48556;51.972;4.624;2023-04-28T03:30:37;76551.03;;;-146.23;40.79
62508;BME280;48556;51.972;4.624;2023-04-28T03:33:03;76553.06;;;-146.23;40.77
62508;BME280;48556;51.972;4.624;2023-04-28T03:35:28;76508.88;;;-146.23;40.29
62508;BME280;48556;51.972;4.624;2023-04-28T03:37:54;76545.03;;;-146.23;40.59
62508;BME280;48556;51.972;4.624;2023-04-28T03:40:20;76512.88;;;-146.23;40.38
62508;BME280;48556;51.972;4.624;2023-04-28T03:42:45;76516.91;;;-146.23;40.33
62508;BME280;48556;51.972;4.624;2023-04-28T03:45:11;76532.97;;;-146.23;40.85
62508;BME280;48556;51.972;4.624;2023-04-28T03:47:45;76502.84;;;-146.23;40.67
62508;BME280;48556;51.972;4.624;2023-04-28T03:50:19;76476.75;;;-146.23;40.20
62508;BME280;48556;51.972;4.624;2023-04-28T03:52:45;76532.97;;;-146.23;40.59
62508;BME280;48556;51.972;4.624;2023-04-28T03:55:11;76551.03;;;-146.23;40.99
62508;BME280;48556;51.972;4.624;2023-04-28T03:57:40;76508.88;;;-146.23;40.77
62508;BME280;48556;51.972;4.624;2023-04-28T04:00:14;76530.97;;;-146.23;41.00
62508;BME280;48556;51.972;4.624;2023-04-28T04:02:40;76486.78;;;-146.23;40.54
62508;BME280;48556;51.972;4.624;2023-04-28T04:05:20;76506.88;;;-146.23;41.26
62508;BME280;48556;51.972;4.624;2023-04-28T04:07:48;76516.91;;;-146.23;41.38
62508;BME280;48556;51.972;4.624;2023-04-28T04:10:21;76545.03;;;-146.23;41.73
62508;BME280;48556;51.972;4.624;2023-04-28T04:12:47;76498.81;;;-146.23;41.62
62508;BME280;48556;51.972;4.624;2023-04-28T04:15:13;76530.97;;;-146.23;41.73
62508;BME280;48556;51.972;4.624;2023-04-28T04:17:39;76555.06;;;-146.23;42.25
62508;BME280;48556;51.972;4.624;2023-04-28T04:20:05;76500.84;;;-146.23;41.67
62508;BME280;48556;51.972;4.624;2023-04-28T04:22:31;76506.88;;;-146.23;41.65
62508;BME280;48556;51.972;4.624;2023-04-28T04:25:01;76460.66;;;-146.23;41.43
62508;BME280;48556;51.972;4.624;2023-04-28T04:27:27;76502.84;;;-146.23;41.87
62508;BME280;48556;51.972;4.624;2023-04-28T04:29:53;76496.81;;;-146.23;42.03
62508;BME280;48556;51.972;4.624;2023-04-28T04:32:20;76460.66;;;-146.23;41.78
62508;BME280;48556;51.972;4.624;2023-04-28T04:34:54;76444.59;;;-146.23;41.18
62508;BME280;48556;51.972;4.624;2023-04-28T04:37:26;76496.81;;;-146.23;42.12
62508;BME280;48556;51.972;4.624;2023-04-28T04:39:53;76506.88;;;-146.23;42.30
62508;BME280;48556;51.972;4.624;2023-04-28T04:42:18;76464.69;;;-146.23;41.66
62508;BME280;48556;51.972;4.624;2023-04-28T04:44:45;76422.50;;;-146.23;40.91
62508;BME280;48556;51.972;4.624;2023-04-28T04:47:12;76454.66;;;-146.23;41.50
62508;BME280;48556;51.972;4.624;2023-04-28T04:49:38;76454.66;;;-146.23;42.58
62508;BME280;48556;51.972;4.624;2023-04-28T04:52:04;76420.50;;;-146.23;42.82
62508;BME280;48556;51.972;4.624;2023-04-28T04:54:41;76484.78;;;-146.23;45.33
62508;BME280;48556;51.972;4.624;2023-04-28T04:57:07;76472.72;;;-146.23;45.78
62508;BME280;48556;51.972;4.624;2023-04-28T04:59:33;76466.69;;;-146.23;46.17
62508;BME280;48556;51.972;4.624;2023-04-28T05:01:58;76504.84;;;-146.23;46.90
62508;BME280;48556;51.972;4.624;2023-04-28T05:04:27;76420.50;;;-146.23;45.93
62508;BME280;48556;51.972;4.624;2023-04-28T05:07:03;76506.88;;;-146.23;48.17
62508;BME280;48556;51.972;4.624;2023-04-28T05:09:28;76460.66;;;-146.23;47.36
62508;BME280;48556;51.972;4.624;2023-04-28T05:11:56;76482.75;;;-146.23;47.81
62508;BME280;48556;51.972;4.624;2023-04-28T05:14:22;76448.63;;;-146.23;47.24
62508;BME280;48556;51.972;4.624;2023-04-28T05:16:48;76448.63;;;-146.23;47.78
62508;BME280;48556;51.972;4.624;2023-04-28T05:19:16;76438.56;;;-146.23;47.42
62508;BME280;48556;51.972;4.624;2023-04-28T05:21:47;76476.75;;;-146.23;47.65
62508;BME280;48556;51.972;4.624;2023-04-28T05:24:17;76450.63;;;-146.23;47.64
62508;BME280;48556;51.972;4.624;2023-04-28T05:26:42;76456.66;;;-146.23;48.12
62508;BME280;48556;51.972;4.624;2023-04-28T05:29:08;76444.59;;;-146.23;48.17
62508;BME280;48556;51.972;4.624;2023-04-28T05:31:35;76430.53;;;-146.23;47.62
62508;BME280;48556;51.972;4.624;2023-04-28T05:34:01;76444.59;;;-146.23;47.75
62508;BME280;48556;51.972;4.624;2023-04-28T05:36:27;76404.44;;;-146.23;48.32
62508;BME280;48556;51.972;4.624;2023-04-28T05:42:30;76444.59;;;-146.23;49.95
62508;BME280;48556;51.972;4.624;2023-04-28T05:45:05;76420.50;;;-146.23;50.04
62508;BME280;48556;51.972;4.624;2023-04-28T05:47:32;76434.56;;;-146.23;51.10
62508;BME280;48556;51.972;4.624;2023-04-28T05:50:00;76476.75;;;-146.23;52.33
62508;BME280;48556;51.972;4.624;2023-04-28T05:52:26;76448.63;;;-146.23;51.89
62508;BME280;48556;51.972;4.624;2023-04-28T05:54:52;76416.50;;;-146.23;50.97
62508;BME280;48556;51.972;4.624;2023-04-28T05:57:20;76428.53;;;-146.23;51.03
62508;BME280;48556;51.972;4.624;2023-04-28T05:59:46;76416.50;;;-146.23;51.14
62508;BME280;48556;51.972;4.624;2023-04-28T06:02:12;76414.47;;;-146.23;51.75
62508;BME280;48556;51.972;4.624;2023-04-28T06:04:44;76472.72;;;-146.23;52.44
62508;BME280;48556;51.972;4.624;2023-04-28T06:07:11;76432.56;;;-146.23;51.98
62508;BME280;48556;51.972;4.624;2023-04-28T06:09:36;76468.69;;;-146.23;52.41
62508;BME280;48556;51.972;4.624;2023-04-28T06:12:03;76466.69;;;-146.23;52.86
62508;BME280;48556;51.972;4.624;2023-04-28T06:14:29;76434.56;;;-146.23;52.53
62508;BME280;48556;51.972;4.624;2023-04-28T06:16:55;76476.75;;;-146.23;52.85
62508;BME280;48556;51.972;4.624;2023-04-28T06:19:21;76462.69;;;-146.23;53.07
62508;BME280;48556;51.972;4.624;2023-04-28T06:21:52;76512.88;;;-146.23;54.16
62508;BME280;48556;51.972;4.624;2023-04-28T06:24:22;76472.72;;;-146.23;54.05
62508;BME280;48556;51.972;4.624;2023-04-28T06:26:51;76536.97;;;-146.23;55.00
62508;BME280;48556;51.972;4.624;2023-04-28T06:29:24;76516.91;;;-146.23;55.15
62508;BME280;48556;51.972;4.624;2023-04-28T06:31:52;76464.69;;;-146.23;54.60
62508;BME280;48556;51.972;4.624;2023-04-28T06:34:25;76510.88;;;-146.23;54.46
62508;BME280;48556;51.972;4.624;2023-04-28T06:36:57;76500.84;;;-146.23;55.14
62508;BME280;48556;51.972;4.624;2023-04-28T06:39:26;76516.91;;;-146.23;55.85
62508;BME280;48556;51.972;4.624;2023-04-28T06:41:56;76516.91;;;-146.23;56.40
62508;BME280;48556;51.972;4.624;2023-04-28T06:44:22;76474.72;;;-146.23;56.31
62508;BME280;48556;51.972;4.624;2023-04-28T06:46:48;76454.66;;;-146.23;56.12
62508;BME280;48556;51.972;4.624;2023-04-28T06:49:13;76472.72;;;-146.23;57.15
62508;BME280;48556;51.972;4.624;2023-04-28T06:51:40;76430.53;;;-146.23;56.63
62508;BME280;48556;51.972;4.624;2023-04-28T06:54:05;76464.69;;;-146.23;57.69
62508;BME280;48556;51.972;4.624;2023-04-28T06:56:31;76408.44;;;-146.23;57.22
62508;BME280;48556;51.972;4.624;2023-04-28T06:58:57;76438.56;;;-146.23;57.97
62508;BME280;48556;51.972;4.624;2023-04-28T07:01:24;76518.91;;;-146.23;59.54
62508;BME280;48556;51.972;4.624;2023-04-28T07:03:49;76468.69;;;-146.23;59.96
62508;BME280;48556;51.972;4.624;2023-04-28T07:06:15;76472.72;;;-146.23;59.98
62508;BME280;48556;51.972;4.624;2023-04-28T07:08:42;76432.56;;;-146.23;59.16
62508;BME280;48556;51.972;4.624;2023-04-28T07:11:15;76388.38;;;-146.23;59.10
62508;BME280;48556;51.972;4.624;2023-04-28T07:13:43;76406.44;;;-146.23;58.95
62508;BME280;48556;51.972;4.624;2023-04-28T07:16:18;76392.38;;;-146.23;59.05
62508;BME280;48556;51.972;4.624;2023-04-28T07:18:45;76474.72;;;-146.23;61.04
62508;BME280;48556;51.972;4.624;2023-04-28T07:21:11;76442.59;;;-146.23;61.79
62508;BME280;48556;51.972;4.624;2023-04-28T07:23:37;76502.84;;;-146.23;62.63
62508;BME280;48556;51.972;4.624;2023-04-28T07:26:04;76448.63;;;-146.23;62.84
62508;BME280;48556;51.972;4.624;2023-04-28T07:28:30;76428.53;;;-146.23;62.45
62508;BME280;48556;51.972;4.624;2023-04-28T07:30:56;76436.56;;;-146.23;62.82
62508;BME280;48556;51.972;4.624;2023-04-28T07:33:28;76452.63;;;-146.23;63.27
62508;BME280;48556;51.972;4.624;2023-04-28T07:36:08;76426.53;;;-146.23;64.01
62508;BME280;48556;51.972;4.624;2023-04-28T07:38:35;76404.44;;;-146.23;63.50
62508;BME280;48556;51.972;4.624;2023-04-28T07:41:08;76336.16;;;-146.23;62.34
62508;BME280;48556;51.972;4.624;2023-04-28T07:43:34;76320.09;;;-146.23;62.03
62508;BME280;48556;51.972;4.624;2023-04-28T07:46:15;76334.16;;;-146.23;62.08
62508;BME280;48556;51.972;4.624;2023-04-28T07:48:51;76334.16;;;-146.23;62.10
62508;BME280;48556;51.972;4.624;2023-04-28T07:51:19;76386.38;;;-146.23;63.22
62508;BME280;48556;51.972;4.624;2023-04-28T07:53:47;76360.25;;;-146.23;64.16
62508;BME280;48556;51.972;4.624;2023-04-28T07:56:14;76326.13;;;-146.23;63.32
62508;BME280;48556;51.972;4.624;2023-04-28T07:58:41;76293.97;;;-146.23;62.76
62508;BME280;48556;51.972;4.624;2023-04-28T08:01:07;76287.97;;;-146.23;62.47
62508;BME280;48556;51.972;4.624;2023-04-28T08:03:33;76235.75;;;-146.23;61.80
62508;BME280;48556;51.972;4.624;2023-04-28T08:06:04;76205.63;;;-146.23;60.95
62508;BME280;48556;51.972;4.624;2023-04-28T08:08:31;76231.72;;;-146.23;61.53
62508;BME280;48556;51.972;4.624;2023-04-28T08:10:58;76231.72;;;-146.23;61.58
62508;BME280;48556;51.972;4.624;2023-04-28T08:13:24;76195.59;;;-146.23;60.89
62508;BME280;48556;51.972;4.624;2023-04-28T08:15:49;76183.53;;;-146.23;60.47
62508;BME280;48556;51.972;4.624;2023-04-28T08:18:18;76207.63;;;-146.23;61.35
62508;BME280;48556;51.972;4.624;2023-04-28T08:20:44;76167.47;;;-146.23;60.88
62508;BME280;48556;51.972;4.624;2023-04-28T08:23:09;76147.38;;;-146.23;60.54
62508;BME280;48556;51.972;4.624;2023-04-28T08:25:35;76143.38;;;-146.23;60.52
62508;BME280;48556;51.972;4.624;2023-04-28T08:28:12;76113.25;;;-146.23;59.93
62508;BME280;48556;51.972;4.624;2023-04-28T08:30:38;76177.50;;;-146.23;61.50
62508;BME280;48556;51.972;4.624;2023-04-28T08:33:08;76171.50;;;-146.23;62.11
62508;BME280;48556;51.972;4.624;2023-04-28T08:35:44;76169.47;;;-146.23;62.01
62508;BME280;48556;51.972;4.624;2023-04-28T08:38:31;76159.44;;;-146.23;62.46
62508;BME280;48556;51.972;4.624;2023-04-28T08:41:17;76131.31;;;-146.23;61.39
62508;BME280;48556;51.972;4.624;2023-04-28T08:43:43;76129.31;;;-146.23;61.85
62508;BME280;48556;51.972;4.624;2023-04-28T08:46:17;76137.34;;;-146.23;62.47
62508;BME280;48556;51.972;4.624;2023-04-28T08:48:52;76095.19;;;-146.23;61.23
62508;BME280;48556;51.972;4.624;2023-04-28T08:51:37;76071.06;;;-146.23;61.45
62508;BME280;48556;51.972;4.624;2023-04-28T08:54:08;76061.03;;;-146.23;61.45
62508;BME280;48556;51.972;4.624;2023-04-28T08:56:35;76059.03;;;-146.23;61.05
62508;BME280;48556;51.972;4.624;2023-04-28T08:59:02;76063.03;;;-146.23;60.96
62508;BME280;48556;51.972;4.624;2023-04-28T09:01:30;76059.03;;;-146.23;60.89
62508;BME280;48556;51.972;4.624;2023-04-28T09:03:59;76059.03;;;-146.23;61.29
62508;BME280;48556;51.972;4.624;2023-04-28T09:06:36;76044.97;;;-146.23;61.01
62508;BME280;48556;51.972;4.624;2023-04-28T09:09:22;76103.22;;;-146.23;62.56
62508;BME280;48556;51.972;4.624;2023-04-28T09:12:13;76099.19;;;-146.23;62.39
62508;BME280;48556;51.972;4.624;2023-04-28T09:14:39;76091.16;;;-146.23;62.63
62508;BME280;48556;51.972;4.624;2023-04-28T09:17:12;76038.94;;;-146.23;61.84
62508;BME280;48556;51.972;4.624;2023-04-28T09:19:48;76059.03;;;-146.23;62.49
62508;BME280;48556;51.972;4.624;2023-04-28T09:22:15;76012.84;;;-146.23;61.69
62508;BME280;48556;51.972;4.624;2023-04-28T09:24:44;76020.88;;;-146.23;61.22
62508;BME280;48556;51.972;4.624;2023-04-28T09:27:11;75992.75;;;-146.23;61.47
62508;BME280;48556;51.972;4.624;2023-04-28T09:30:11;76022.88;;;-146.23;61.21
62508;BME280;48556;51.972;4.624;2023-04-28T09:33:04;75988.75;;;-146.23;61.37
62508;BME280;48556;51.972;4.624;2023-04-28T09:35:43;76057.03;;;-146.23;62.49
62508;BME280;48556;51.972;4.624;2023-04-28T09:38:19;76119.28;;;-146.23;63.65
62508;BME280;48556;51.972;4.624;2023-04-28T09:40:55;76079.13;;;-146.23;63.63
62508;BME280;48556;51.972;4.624;2023-04-28T09:43:27;76149.41;;;-146.23;65.57
62508;BME280;48556;51.972;4.624;2023-04-28T09:46:27;76105.22;;;-146.23;65.36
62508;BME280;48556;51.972;4.624;2023-04-28T09:49:17;76063.03;;;-146.23;64.28
62508;BME280;48556;51.972;4.624;2023-04-28T09:51:44;76135.34;;;-146.23;65.48
62508;BME280;48556;51.972;4.624;2023-04-28T09:54:26;76107.22;;;-146.23;65.06
62508;BME280;48556;51.972;4.624;2023-04-28T09:56:59;76067.06;;;-146.23;64.59
62508;BME280;48556;51.972;4.624;2023-04-28T09:59:27;76002.81;;;-146.23;63.88
62508;BME280;48556;51.972;4.624;2023-04-28T10:02:08;76055.00;;;-146.23;63.54
62508;BME280;48556;51.972;4.624;2023-04-28T10:04:34;76053.00;;;-146.23;64.44
62508;BME280;48556;51.972;4.624;2023-04-28T10:07:30;75970.69;;;-146.23;63.31
62508;BME280;48556;51.972;4.624;2023-04-28T10:09:59;75980.72;;;-146.23;62.61
62508;BME280;48556;51.972;4.624;2023-04-28T10:12:25;75996.78;;;-146.23;62.52
62508;BME280;48556;51.972;4.624;2023-04-28T10:15:00;75942.56;;;-146.23;62.16
62508;BME280;48556;51.972;4.624;2023-04-28T10:17:57;76053.00;;;-146.23;64.50
62508;BME280;48556;51.972;4.624;2023-04-28T10:20:45;76038.94;;;-146.23;65.34
62508;BME280;48556;51.972;4.624;2023-04-28T10:29:35;76115.25;;;-146.23;68.98
62508;BME280;48556;51.972;4.624;2023-04-28T10:32:21;76167.47;;;-146.23;68.84
62508;BME280;48556;51.972;4.624;2023-04-28T10:34:48;76151.41;;;-146.23;69.45
62508;BME280;48556;51.972;4.624;2023-04-28T10:37:15;76153.41;;;-146.23;69.50
62508;BME280;48556;51.972;4.624;2023-04-28T10:43:00;76199.59;;;-146.23;69.36
62508;BME280;48556;51.972;4.624;2023-04-28T10:45:59;76163.44;;;-146.23;69.84
62508;BME280;48556;51.972;4.624;2023-04-28T10:56:27;76071.06;;;-146.23;67.45
62508;BME280;48556;51.972;4.624;2023-04-28T10:58:57;76089.16;;;-146.23;67.00
62508;BME280;48556;51.972;4.624;2023-04-28T11:01:30;76129.31;;;-146.23;67.54
62508;BME280;48556;51.972;4.624;2023-04-28T11:04:29;76147.38;;;-146.23;67.67
62508;BME280;48556;51.972;4.624;2023-04-28T11:07:17;76169.47;;;-146.23;68.52
62508;BME280;48556;51.972;4.624;2023-04-28T11:11:16;76167.47;;;-146.23;68.82
62508;BME280;48556;51.972;4.624;2023-04-28T11:13:41;76127.31;;;-146.23;67.10
62508;BME280;48556;51.972;4.624;2023-04-28T11:16:20;76151.41;;;-146.23;67.85
62508;BME280;48556;51.972;4.624;2023-04-28T11:18:49;76163.44;;;-146.23;68.26
62508;BME280;48556;51.972;4.624;2023-04-28T11:21:24;76103.22;;;-146.23;67.36
62508;BME280;48556;51.972;4.624;2023-04-28T11:23:51;76119.28;;;-146.23;67.36
62508;BME280;48556;51.972;4.624;2023-04-28T11:26:18;76127.31;;;-146.23;67.67
62508;BME280;48556;51.972;4.624;2023-04-28T11:28:58;76131.31;;;-146.23;67.91
62508;BME280;48556;51.972;4.624;2023-04-28T11:31:26;76153.41;;;-146.23;69.13
62508;BME280;48556;51.972;4.624;2023-04-28T11:34:10;76143.38;;;-146.23;68.66
62508;BME280;48556;51.972;4.624;2023-04-28T11:36:45;76091.16;;;-146.23;67.71
62508;BME280;48556;51.972;4.624;2023-04-28T11:39:11;76077.09;;;-146.23;67.81
62508;BME280;48556;51.972;4.624;2023-04-28T11:41:39;76091.16;;;-146.23;68.08
62508;BME280;48556;51.972;4.624;2023-04-28T11:46:45;76143.38;;;-146.23;69.01
62508;BME280;48556;51.972;4.624;2023-04-28T11:49:15;76121.28;;;-146.23;69.12
62508;BME280;48556;51.972;4.624;2023-04-28T11:51:41;76109.22;;;-146.23;69.33
62508;BME280;48556;51.972;4.624;2023-04-28T11:54:09;76075.09;;;-146.23;69.13
62508;BME280;48556;51.972;4.624;2023-04-28T11:56:41;76079.13;;;-146.23;68.61
62508;BME280;48556;51.972;4.624;2023-04-28T11:59:13;76057.03;;;-146.23;68.44
62508;BME280;48556;51.972;4.624;2023-04-28T12:02:05;76093.16;;;-146.23;68.51
62508;BME280;48556;51.972;4.624;2023-04-28T12:04:40;76079.13;;;-146.23;68.32
62508;BME280;48556;51.972;4.624;2023-04-28T12:09:36;76119.28;;;-146.23;68.94
62508;BME280;48556;51.972;4.624;2023-04-28T12:12:08;76107.22;;;-146.23;69.05
62508;BME280;48556;51.972;4.624;2023-04-28T12:14:59;76071.06;;;-146.23;68.28
62508;BME280;48556;51.972;4.624;2023-04-28T12:20:02;76055.00;;;-146.23;67.91
62508;BME280;48556;51.972;4.624;2023-04-28T12:22:46;76057.03;;;-146.23;67.77
62508;BME280;48556;51.972;4.624;2023-04-28T12:25:20;76083.13;;;-146.23;68.23
62508;BME280;48556;51.972;4.624;2023-04-28T12:28:06;76063.03;;;-146.23;67.53
62508;BME280;48556;51.972;4.624;2023-04-28T12:30:36;76008.81;;;-146.23;66.31
62508;BME280;48556;51.972;4.624;2023-04-28T12:33:24;76065.06;;;-146.23;67.48
62508;BME280;48556;51.972;4.624;2023-04-28T12:35:50;76034.94;;;-146.23;67.10
62508;BME280;48556;51.972;4.624;2023-04-28T12:38:25;76059.03;;;-146.23;67.26
62508;BME280;48556;51.972;4.624;2023-04-28T12:41:03;76028.91;;;-146.23;66.89
62508;BME280;48556;51.972;4.624;2023-04-28T12:43:43;76069.06;;;-146.23;66.85
62508;BME280;48556;51.972;4.624;2023-04-28T12:46:11;76081.13;;;-146.23;68.12
62508;BME280;48556;51.972;4.624;2023-04-28T12:48:39;76103.22;;;-146.23;68.21
62508;BME280;48556;51.972;4.624;2023-04-28T12:51:16;76079.13;;;-146.23;67.51
62508;BME280;48556;51.972;4.624;2023-04-28T12:53:42;76159.44;;;-146.23;68.81
62508;BME280;48556;51.972;4.624;2023-04-28T12:56:16;76207.63;;;-146.23;70.34
62508;BME280;48556;51.972;4.624;2023-04-28T12:58:42;76207.63;;;-146.23;70.71
62508;BME280;48556;51.972;4.624;2023-04-28T13:01:15;76151.41;;;-146.23;70.34
62508;BME280;48556;51.972;4.624;2023-04-28T13:03:54;76171.50;;;-146.23;69.89
62508;BME280;48556;51.972;4.624;2023-04-28T13:06:41;76215.66;;;-146.23;70.19
62508;BME280;48556;51.972;4.624;2023-04-28T13:09:17;76151.41;;;-146.23;69.44
62508;BME280;48556;51.972;4.624;2023-04-28T13:11:57;76143.38;;;-146.23;69.32
62508;BME280;48556;51.972;4.624;2023-04-28T13:14:25;76121.28;;;-146.23;68.32
62508;BME280;48556;51.972;4.624;2023-04-28T13:17:07;76143.38;;;-146.23;69.00
62508;BME280;48556;51.972;4.624;2023-04-28T13:19:34;76127.31;;;-146.23;69.35
62508;BME280;48556;51.972;4.624;2023-04-28T13:22:08;76191.56;;;-146.23;69.94
62508;BME280;48556;51.972;4.624;2023-04-28T13:24:36;76171.50;;;-146.23;69.95
62508;BME280;48556;51.972;4.624;2023-04-28T13:27:30;76143.38;;;-146.23;70.14
62508;BME280;48556;51.972;4.624;2023-04-28T13:29:57;76137.34;;;-146.23;69.55